sensor_id;sensor_type;location;lat;lon;timestamp;P1;durP1;ratioP1;P2;durP2;ratioP2
42192;SDS011;52467;40.114;18.306;2023-06-22T00:02:24;8.20;;;5.77;;
42192;SDS011;52467;40.114;18.306;2023-06-22T00:04:51;9.98;;;6.32;;
42192;SDS011;52467;40.114;18.306;2023-06-22T00:07:18;8.30;;;5.82;;
42192;SDS011;52467;40.114;18.306;2023-06-22T00:09:45;9.43;;;5.67;;
42192;SDS011;52467;40.114;18.306;2023-06-22T00:12:13;9.97;;;6.00;;
42192;SDS011;52467;40.114;18.306;2023-06-22T00:14:40;10.73;;;6.00;;
42192;SDS011;52467;40.114;18.306;2023-06-22T00:17:07;8.38;;;5.80;;
42192;SDS011;52467;40.114;18.306;2023-06-22T00:19:35;9.55;;;6.18;;
42192;SDS011;52467;40.114;18.306;2023-06-22T00:22:02;9.45;;;6.25;;
42192;SDS011;52467;40.114;18.306;2023-06-22T00:24:30;11.15;;;6.43;;
42192;SDS011;52467;40.114;18.306;2023-06-22T00:26:57;9.68;;;6.70;;
42192;SDS011;52467;40.114;18.306;2023-06-22T00:29:24;12.35;;;6.57;;
42192;SDS011;52467;40.114;18.306;2023-06-22T00:31:55;10.48;;;6.80;;
42192;SDS011;52467;40.114;18.306;2023-06-22T00:34:22;9.57;;;6.00;;
42192;SDS011;52467;40.114;18.306;2023-06-22T00:36:49;10.60;;;6.85;;
42192;SDS011;52467;40.114;18.306;2023-06-22T00:39:18;9.90;;;6.53;;
42192;SDS011;52467;40.114;18.306;2023-06-22T00:41:45;7.30;;;5.67;;
42192;SDS011;52467;40.114;18.306;2023-06-22T00:44:13;12.40;;;6.60;;
42192;SDS011;52467;40.114;18.306;2023-06-22T00:46:40;10.10;;;6.60;;
42192;SDS011;52467;40.114;18.306;2023-06-22T00:49:07;9.87;;;6.43;;
42192;SDS011;52467;40.114;18.306;2023-06-22T00:51:36;8.90;;;6.43;;
42192;SDS011;52467;40.114;18.306;2023-06-22T00:54:04;10.45;;;6.63;;
42192;SDS011;52467;40.114;18.306;2023-06-22T00:56:32;9.40;;;6.30;;
42192;SDS011;52467;40.114;18.306;2023-06-22T00:59:01;9.70;;;6.30;;
42192;SDS011;52467;40.114;18.306;2023-06-22T01:01:30;12.30;;;6.93;;
42192;SDS011;52467;40.114;18.306;2023-06-22T01:03:57;10.35;;;6.60;;
42192;SDS011;52467;40.114;18.306;2023-06-22T01:06:29;11.45;;;7.13;;
42192;SDS011;52467;40.114;18.306;2023-06-22T01:09:11;10.85;;;6.82;;
42192;SDS011;52467;40.114;18.306;2023-06-22T01:11:49;9.93;;;6.57;;
42192;SDS011;52467;40.114;18.306;2023-06-22T01:14:24;12.23;;;7.60;;
42192;SDS011;52467;40.114;18.306;2023-06-22T01:16:55;12.35;;;7.97;;
42192;SDS011;52467;40.114;18.306;2023-06-22T01:22:02;12.40;;;7.28;;
42192;SDS011;52467;40.114;18.306;2023-06-22T01:24:44;11.35;;;7.82;;
42192;SDS011;52467;40.114;18.306;2023-06-22T01:29:52;10.85;;;7.38;;
42192;SDS011;52467;40.114;18.306;2023-06-22T01:32:31;12.38;;;7.78;;
42192;SDS011;52467;40.114;18.306;2023-06-22T01:35:01;12.73;;;7.47;;
42192;SDS011;52467;40.114;18.306;2023-06-22T01:37:30;11.27;;;7.10;;
42192;SDS011;52467;40.114;18.306;2023-06-22T01:40:00;11.00;;;7.05;;
42192;SDS011;52467;40.114;18.306;2023-06-22T01:42:28;11.63;;;6.57;;
42192;SDS011;52467;40.114;18.306;2023-06-22T01:44:56;10.73;;;6.82;;
42192;SDS011;52467;40.114;18.306;2023-06-22T01:47:24;10.35;;;6.43;;
42192;SDS011;52467;40.114;18.306;2023-06-22T01:49:51;11.50;;;7.53;;
42192;SDS011;52467;40.114;18.306;2023-06-22T01:52:19;11.57;;;7.40;;
42192;SDS011;52467;40.114;18.306;2023-06-22T01:54:48;10.43;;;6.85;;
42192;SDS011;52467;40.114;18.306;2023-06-22T01:57:15;11.40;;;6.88;;
42192;SDS011;52467;40.114;18.306;2023-06-22T02:02:16;9.23;;;7.25;;
42192;SDS011;52467;40.114;18.306;2023-06-22T02:04:51;11.73;;;6.93;;
42192;SDS011;52467;40.114;18.306;2023-06-22T02:07:23;10.30;;;6.70;;
42192;SDS011;52467;40.114;18.306;2023-06-22T02:09:52;10.60;;;6.75;;
42192;SDS011;52467;40.114;18.306;2023-06-22T02:12:21;11.70;;;7.22;;
42192;SDS011;52467;40.114;18.306;2023-06-22T02:14:51;10.70;;;6.43;;
42192;SDS011;52467;40.114;18.306;2023-06-22T02:17:19;11.63;;;6.68;;
42192;SDS011;52467;40.114;18.306;2023-06-22T02:19:46;9.88;;;7.13;;
42192;SDS011;52467;40.114;18.306;2023-06-22T02:22:14;11.17;;;6.73;;
42192;SDS011;52467;40.114;18.306;2023-06-22T02:24:43;10.60;;;6.57;;
42192;SDS011;52467;40.114;18.306;2023-06-22T02:27:10;10.88;;;6.72;;
42192;SDS011;52467;40.114;18.306;2023-06-22T02:29:37;12.15;;;6.68;;
42192;SDS011;52467;40.114;18.306;2023-06-22T02:32:05;10.57;;;7.22;;
42192;SDS011;52467;40.114;18.306;2023-06-22T02:34:32;12.15;;;7.38;;
42192;SDS011;52467;40.114;18.306;2023-06-22T02:37:00;9.50;;;7.10;;
42192;SDS011;52467;40.114;18.306;2023-06-22T02:39:29;10.43;;;6.72;;
42192;SDS011;52467;40.114;18.306;2023-06-22T02:41:56;11.02;;;6.90;;
42192;SDS011;52467;40.114;18.306;2023-06-22T02:44:23;9.38;;;6.72;;
42192;SDS011;52467;40.114;18.306;2023-06-22T02:46:51;11.27;;;6.63;;
42192;SDS011;52467;40.114;18.306;2023-06-22T02:49:18;10.07;;;6.80;;
42192;SDS011;52467;40.114;18.306;2023-06-22T02:51:46;9.40;;;7.00;;
42192;SDS011;52467;40.114;18.306;2023-06-22T02:54:17;9.88;;;6.70;;
42192;SDS011;52467;40.114;18.306;2023-06-22T02:56:47;9.73;;;6.50;;
42192;SDS011;52467;40.114;18.306;2023-06-22T02:59:15;9.93;;;6.70;;
42192;SDS011;52467;40.114;18.306;2023-06-22T03:01:44;12.48;;;7.38;;
42192;SDS011;52467;40.114;18.306;2023-06-22T03:04:19;9.55;;;7.03;;
42192;SDS011;52467;40.114;18.306;2023-06-22T03:06:47;12.95;;;6.97;;
42192;SDS011;52467;40.114;18.306;2023-06-22T03:09:17;11.77;;;6.95;;
42192;SDS011;52467;40.114;18.306;2023-06-22T03:11:44;12.40;;;7.63;;
42192;SDS011;52467;40.114;18.306;2023-06-22T03:14:12;14.25;;;7.63;;
42192;SDS011;52467;40.114;18.306;2023-06-22T03:16:39;14.80;;;7.75;;
42192;SDS011;52467;40.114;18.306;2023-06-22T03:19:07;16.17;;;8.38;;
42192;SDS011;52467;40.114;18.306;2023-06-22T03:21:35;10.80;;;7.30;;
42192;SDS011;52467;40.114;18.306;2023-06-22T03:24:05;12.05;;;7.82;;
42192;SDS011;52467;40.114;18.306;2023-06-22T03:26:33;14.67;;;7.63;;
42192;SDS011;52467;40.114;18.306;2023-06-22T03:29:01;11.27;;;7.13;;
42192;SDS011;52467;40.114;18.306;2023-06-22T03:31:29;13.10;;;7.63;;
42192;SDS011;52467;40.114;18.306;2023-06-22T03:33:57;12.50;;;7.43;;
42192;SDS011;52467;40.114;18.306;2023-06-22T03:36:24;12.55;;;7.88;;
42192;SDS011;52467;40.114;18.306;2023-06-22T03:38:52;12.70;;;7.95;;
42192;SDS011;52467;40.114;18.306;2023-06-22T03:41:19;10.98;;;7.38;;
42192;SDS011;52467;40.114;18.306;2023-06-22T03:43:48;10.68;;;6.95;;
42192;SDS011;52467;40.114;18.306;2023-06-22T03:46:15;10.97;;;7.07;;
42192;SDS011;52467;40.114;18.306;2023-06-22T03:48:42;10.93;;;7.68;;
42192;SDS011;52467;40.114;18.306;2023-06-22T03:51:10;13.48;;;7.10;;
42192;SDS011;52467;40.114;18.306;2023-06-22T03:53:37;11.63;;;7.05;;
42192;SDS011;52467;40.114;18.306;2023-06-22T03:56:04;11.20;;;7.18;;
42192;SDS011;52467;40.114;18.306;2023-06-22T03:58:32;9.93;;;6.85;;
42192;SDS011;52467;40.114;18.306;2023-06-22T04:01:00;11.07;;;7.00;;
42192;SDS011;52467;40.114;18.306;2023-06-22T04:03:27;13.57;;;6.93;;
42192;SDS011;52467;40.114;18.306;2023-06-22T04:05:54;10.77;;;6.75;;
42192;SDS011;52467;40.114;18.306;2023-06-22T04:08:22;9.98;;;6.53;;
42192;SDS011;52467;40.114;18.306;2023-06-22T04:10:49;10.07;;;6.63;;
42192;SDS011;52467;40.114;18.306;2023-06-22T04:13:17;10.02;;;6.72;;
42192;SDS011;52467;40.114;18.306;2023-06-22T04:15:44;11.85;;;6.50;;
42192;SDS011;52467;40.114;18.306;2023-06-22T04:18:11;8.77;;;6.15;;
42192;SDS011;52467;40.114;18.306;2023-06-22T04:20:40;10.70;;;7.07;;
42192;SDS011;52467;40.114;18.306;2023-06-22T04:23:07;10.20;;;6.88;;
42192;SDS011;52467;40.114;18.306;2023-06-22T04:25:34;10.48;;;6.32;;
42192;SDS011;52467;40.114;18.306;2023-06-22T04:28:02;11.45;;;6.13;;
42192;SDS011;52467;40.114;18.306;2023-06-22T04:30:32;13.77;;;6.60;;
42192;SDS011;52467;40.114;18.306;2023-06-22T04:33:00;10.68;;;6.43;;
42192;SDS011;52467;40.114;18.306;2023-06-22T04:35:28;18.20;;;6.82;;
42192;SDS011;52467;40.114;18.306;2023-06-22T04:37:57;12.95;;;6.53;;
42192;SDS011;52467;40.114;18.306;2023-06-22T04:40:26;10.20;;;6.27;;
42192;SDS011;52467;40.114;18.306;2023-06-22T04:42:53;10.55;;;6.63;;
42192;SDS011;52467;40.114;18.306;2023-06-22T04:45:21;12.95;;;6.80;;
42192;SDS011;52467;40.114;18.306;2023-06-22T04:47:49;11.93;;;5.70;;
42192;SDS011;52467;40.114;18.306;2023-06-22T04:50:16;8.48;;;5.75;;
42192;SDS011;52467;40.114;18.306;2023-06-22T04:52:44;11.65;;;6.97;;
42192;SDS011;52467;40.114;18.306;2023-06-22T04:55:12;10.80;;;6.20;;
42192;SDS011;52467;40.114;18.306;2023-06-22T04:57:40;10.15;;;5.97;;
42192;SDS011;52467;40.114;18.306;2023-06-22T05:00:16;10.20;;;5.88;;
42192;SDS011;52467;40.114;18.306;2023-06-22T05:02:48;9.68;;;5.53;;
42192;SDS011;52467;40.114;18.306;2023-06-22T05:05:16;10.65;;;5.32;;
42192;SDS011;52467;40.114;18.306;2023-06-22T05:07:44;10.40;;;5.70;;
42192;SDS011;52467;40.114;18.306;2023-06-22T05:10:14;7.20;;;5.10;;
42192;SDS011;52467;40.114;18.306;2023-06-22T05:12:42;8.55;;;4.78;;
42192;SDS011;52467;40.114;18.306;2023-06-22T05:15:09;9.05;;;4.43;;
42192;SDS011;52467;40.114;18.306;2023-06-22T05:17:37;11.35;;;4.65;;
42192;SDS011;52467;40.114;18.306;2023-06-22T05:20:10;12.40;;;5.50;;
42192;SDS011;52467;40.114;18.306;2023-06-22T05:22:38;9.57;;;4.77;;
42192;SDS011;52467;40.114;18.306;2023-06-22T05:25:08;10.07;;;4.70;;
42192;SDS011;52467;40.114;18.306;2023-06-22T05:27:36;7.25;;;4.43;;
42192;SDS011;52467;40.114;18.306;2023-06-22T05:30:07;9.85;;;4.93;;
42192;SDS011;52467;40.114;18.306;2023-06-22T05:32:35;10.63;;;5.07;;
42192;SDS011;52467;40.114;18.306;2023-06-22T05:35:03;11.02;;;5.10;;
42192;SDS011;52467;40.114;18.306;2023-06-22T05:37:31;11.98;;;5.45;;
42192;SDS011;52467;40.114;18.306;2023-06-22T05:39:58;8.25;;;4.57;;
42192;SDS011;52467;40.114;18.306;2023-06-22T05:42:26;13.70;;;4.93;;
42192;SDS011;52467;40.114;18.306;2023-06-22T05:44:53;6.80;;;4.18;;
42192;SDS011;52467;40.114;18.306;2023-06-22T05:47:20;9.43;;;4.88;;
42192;SDS011;52467;40.114;18.306;2023-06-22T05:49:49;9.70;;;4.80;;
42192;SDS011;52467;40.114;18.306;2023-06-22T05:52:16;9.40;;;4.68;;
42192;SDS011;52467;40.114;18.306;2023-06-22T05:54:44;7.72;;;4.30;;
42192;SDS011;52467;40.114;18.306;2023-06-22T05:57:11;11.40;;;4.80;;
42192;SDS011;52467;40.114;18.306;2023-06-22T05:59:38;8.20;;;3.90;;
42192;SDS011;52467;40.114;18.306;2023-06-22T06:02:06;8.65;;;3.97;;
42192;SDS011;52467;40.114;18.306;2023-06-22T06:04:33;8.15;;;4.07;;
42192;SDS011;52467;40.114;18.306;2023-06-22T06:07:01;11.17;;;4.33;;
42192;SDS011;52467;40.114;18.306;2023-06-22T06:09:28;7.47;;;4.17;;
42192;SDS011;52467;40.114;18.306;2023-06-22T06:11:56;8.93;;;4.03;;
42192;SDS011;52467;40.114;18.306;2023-06-22T06:14:23;6.07;;;3.80;;
42192;SDS011;52467;40.114;18.306;2023-06-22T06:16:51;9.98;;;4.20;;
42192;SDS011;52467;40.114;18.306;2023-06-22T06:19:18;7.07;;;3.83;;
42192;SDS011;52467;40.114;18.306;2023-06-22T06:21:45;7.88;;;3.60;;
42192;SDS011;52467;40.114;18.306;2023-06-22T06:24:13;5.38;;;3.15;;
42192;SDS011;52467;40.114;18.306;2023-06-22T06:26:40;8.60;;;3.30;;
42192;SDS011;52467;40.114;18.306;2023-06-22T06:29:09;5.68;;;3.80;;
42192;SDS011;52467;40.114;18.306;2023-06-22T06:31:36;13.57;;;3.90;;
42192;SDS011;52467;40.114;18.306;2023-06-22T06:34:03;8.95;;;3.28;;
42192;SDS011;52467;40.114;18.306;2023-06-22T06:36:31;5.55;;;3.58;;
42192;SDS011;52467;40.114;18.306;2023-06-22T06:38:58;7.15;;;3.63;;
42192;SDS011;52467;40.114;18.306;2023-06-22T06:41:25;10.60;;;4.18;;
42192;SDS011;52467;40.114;18.306;2023-06-22T06:43:52;10.30;;;3.50;;
42192;SDS011;52467;40.114;18.306;2023-06-22T06:46:20;6.22;;;3.60;;
42192;SDS011;52467;40.114;18.306;2023-06-22T06:48:47;7.22;;;3.90;;
42192;SDS011;52467;40.114;18.306;2023-06-22T06:51:15;7.45;;;3.65;;
42192;SDS011;52467;40.114;18.306;2023-06-22T06:53:42;6.28;;;3.90;;
42192;SDS011;52467;40.114;18.306;2023-06-22T06:56:09;6.37;;;3.53;;
42192;SDS011;52467;40.114;18.306;2023-06-22T06:58:37;7.80;;;3.72;;
42192;SDS011;52467;40.114;18.306;2023-06-22T07:01:07;13.07;;;3.63;;
42192;SDS011;52467;40.114;18.306;2023-06-22T07:03:34;6.97;;;3.85;;
42192;SDS011;52467;40.114;18.306;2023-06-22T07:06:02;8.02;;;3.47;;
42192;SDS011;52467;40.114;18.306;2023-06-22T07:08:29;5.80;;;3.60;;
42192;SDS011;52467;40.114;18.306;2023-06-22T07:10:56;5.95;;;3.50;;
42192;SDS011;52467;40.114;18.306;2023-06-22T07:13:24;9.43;;;3.65;;
42192;SDS011;52467;40.114;18.306;2023-06-22T07:15:51;8.18;;;3.05;;
42192;SDS011;52467;40.114;18.306;2023-06-22T07:18:19;9.70;;;3.78;;
42192;SDS011;52467;40.114;18.306;2023-06-22T07:20:46;6.20;;;3.72;;
42192;SDS011;52467;40.114;18.306;2023-06-22T07:23:14;7.95;;;4.00;;
42192;SDS011;52467;40.114;18.306;2023-06-22T07:25:41;9.07;;;3.35;;
42192;SDS011;52467;40.114;18.306;2023-06-22T07:28:08;10.23;;;3.53;;
42192;SDS011;52467;40.114;18.306;2023-06-22T07:30:36;9.35;;;4.10;;
42192;SDS011;52467;40.114;18.306;2023-06-22T07:33:03;5.60;;;3.30;;
42192;SDS011;52467;40.114;18.306;2023-06-22T07:35:34;6.78;;;3.28;;
42192;SDS011;52467;40.114;18.306;2023-06-22T07:38:01;4.83;;;2.90;;
42192;SDS011;52467;40.114;18.306;2023-06-22T07:40:31;7.23;;;2.90;;
42192;SDS011;52467;40.114;18.306;2023-06-22T07:42:58;11.73;;;3.83;;
42192;SDS011;52467;40.114;18.306;2023-06-22T07:45:26;6.87;;;3.03;;
42192;SDS011;52467;40.114;18.306;2023-06-22T07:47:53;6.10;;;3.20;;
42192;SDS011;52467;40.114;18.306;2023-06-22T07:50:20;6.50;;;3.40;;
42192;SDS011;52467;40.114;18.306;2023-06-22T07:52:48;8.23;;;3.00;;
42192;SDS011;52467;40.114;18.306;2023-06-22T07:55:15;6.22;;;3.50;;
42192;SDS011;52467;40.114;18.306;2023-06-22T07:57:42;6.97;;;3.60;;
42192;SDS011;52467;40.114;18.306;2023-06-22T08:00:10;6.45;;;3.17;;
42192;SDS011;52467;40.114;18.306;2023-06-22T08:02:42;10.35;;;3.28;;
42192;SDS011;52467;40.114;18.306;2023-06-22T08:05:11;7.55;;;3.50;;
42192;SDS011;52467;40.114;18.306;2023-06-22T08:07:45;5.97;;;3.37;;
42192;SDS011;52467;40.114;18.306;2023-06-22T08:10:13;10.63;;;3.15;;
42192;SDS011;52467;40.114;18.306;2023-06-22T08:12:41;8.38;;;3.42;;
42192;SDS011;52467;40.114;18.306;2023-06-22T08:15:08;7.13;;;2.90;;
42192;SDS011;52467;40.114;18.306;2023-06-22T08:17:39;8.37;;;2.83;;
42192;SDS011;52467;40.114;18.306;2023-06-22T08:20:07;6.27;;;2.90;;
42192;SDS011;52467;40.114;18.306;2023-06-22T08:22:43;10.48;;;3.38;;
42192;SDS011;52467;40.114;18.306;2023-06-22T08:25:10;5.10;;;3.13;;
42192;SDS011;52467;40.114;18.306;2023-06-22T08:27:38;4.32;;;3.17;;
42192;SDS011;52467;40.114;18.306;2023-06-22T08:30:06;8.27;;;3.50;;
42192;SDS011;52467;40.114;18.306;2023-06-22T08:32:34;4.90;;;3.30;;
42192;SDS011;52467;40.114;18.306;2023-06-22T08:35:01;5.40;;;3.30;;
42192;SDS011;52467;40.114;18.306;2023-06-22T08:37:29;7.65;;;3.40;;
42192;SDS011;52467;40.114;18.306;2023-06-22T08:40:02;7.30;;;3.60;;
42192;SDS011;52467;40.114;18.306;2023-06-22T08:42:32;7.60;;;3.38;;
42192;SDS011;52467;40.114;18.306;2023-06-22T08:44:59;8.38;;;3.50;;
42192;SDS011;52467;40.114;18.306;2023-06-22T08:47:27;4.93;;;3.03;;
42192;SDS011;52467;40.114;18.306;2023-06-22T08:49:54;7.55;;;3.40;;
42192;SDS011;52467;40.114;18.306;2023-06-22T08:52:22;10.98;;;3.42;;
42192;SDS011;52467;40.114;18.306;2023-06-22T08:54:50;5.63;;;3.50;;
42192;SDS011;52467;40.114;18.306;2023-06-22T08:57:18;7.28;;;3.15;;
42192;SDS011;52467;40.114;18.306;2023-06-22T08:59:45;9.05;;;3.00;;
42192;SDS011;52467;40.114;18.306;2023-06-22T09:02:12;7.25;;;3.08;;
42192;SDS011;52467;40.114;18.306;2023-06-22T09:04:40;9.65;;;3.63;;
42192;SDS011;52467;40.114;18.306;2023-06-22T09:07:08;6.65;;;2.97;;
42192;SDS011;52467;40.114;18.306;2023-06-22T09:09:35;7.72;;;3.38;;
42192;SDS011;52467;40.114;18.306;2023-06-22T09:12:03;6.45;;;3.03;;
42192;SDS011;52467;40.114;18.306;2023-06-22T09:14:31;7.35;;;3.13;;
42192;SDS011;52467;40.114;18.306;2023-06-22T09:16:58;6.45;;;3.72;;
42192;SDS011;52467;40.114;18.306;2023-06-22T09:19:25;6.05;;;2.70;;
42192;SDS011;52467;40.114;18.306;2023-06-22T09:21:53;4.90;;;3.20;;
42192;SDS011;52467;40.114;18.306;2023-06-22T09:24:20;5.88;;;3.20;;
42192;SDS011;52467;40.114;18.306;2023-06-22T09:26:47;6.55;;;2.85;;
42192;SDS011;52467;40.114;18.306;2023-06-22T09:29:15;5.78;;;3.08;;
42192;SDS011;52467;40.114;18.306;2023-06-22T09:31:42;6.30;;;3.03;;
42192;SDS011;52467;40.114;18.306;2023-06-22T09:34:10;8.50;;;3.47;;
42192;SDS011;52467;40.114;18.306;2023-06-22T09:36:38;7.65;;;3.10;;
42192;SDS011;52467;40.114;18.306;2023-06-22T09:39:06;4.93;;;3.17;;
42192;SDS011;52467;40.114;18.306;2023-06-22T09:41:33;7.68;;;3.13;;
42192;SDS011;52467;40.114;18.306;2023-06-22T09:44:01;5.75;;;2.85;;
42192;SDS011;52467;40.114;18.306;2023-06-22T09:46:28;4.03;;;2.80;;
42192;SDS011;52467;40.114;18.306;2023-06-22T09:48:55;4.85;;;3.15;;
42192;SDS011;52467;40.114;18.306;2023-06-22T09:51:23;6.00;;;3.55;;
42192;SDS011;52467;40.114;18.306;2023-06-22T09:53:50;8.68;;;3.53;;
42192;SDS011;52467;40.114;18.306;2023-06-22T09:56:19;7.53;;;3.15;;
42192;SDS011;52467;40.114;18.306;2023-06-22T09:58:46;10.35;;;3.10;;
42192;SDS011;52467;40.114;18.306;2023-06-22T10:01:14;5.90;;;2.92;;
42192;SDS011;52467;40.114;18.306;2023-06-22T10:03:41;4.95;;;3.20;;
42192;SDS011;52467;40.114;18.306;2023-06-22T10:06:09;9.07;;;3.38;;
42192;SDS011;52467;40.114;18.306;2023-06-22T10:08:36;6.43;;;3.50;;
42192;SDS011;52467;40.114;18.306;2023-06-22T10:11:03;6.13;;;3.20;;
42192;SDS011;52467;40.114;18.306;2023-06-22T10:13:31;7.57;;;3.70;;
42192;SDS011;52467;40.114;18.306;2023-06-22T10:15:58;9.15;;;3.05;;
42192;SDS011;52467;40.114;18.306;2023-06-22T10:18:25;6.88;;;3.50;;
42192;SDS011;52467;40.114;18.306;2023-06-22T10:20:53;6.18;;;3.42;;
42192;SDS011;52467;40.114;18.306;2023-06-22T10:23:20;4.90;;;3.07;;
42192;SDS011;52467;40.114;18.306;2023-06-22T10:25:47;6.17;;;3.57;;
42192;SDS011;52467;40.114;18.306;2023-06-22T10:28:15;7.20;;;3.38;;
42192;SDS011;52467;40.114;18.306;2023-06-22T10:30:42;7.20;;;3.33;;
42192;SDS011;52467;40.114;18.306;2023-06-22T10:33:10;10.67;;;3.80;;
42192;SDS011;52467;40.114;18.306;2023-06-22T10:35:38;8.55;;;3.33;;
42192;SDS011;52467;40.114;18.306;2023-06-22T10:38:07;4.70;;;3.15;;
42192;SDS011;52467;40.114;18.306;2023-06-22T10:40:35;7.37;;;3.40;;
42192;SDS011;52467;40.114;18.306;2023-06-22T10:43:02;10.50;;;3.70;;
42192;SDS011;52467;40.114;18.306;2023-06-22T10:45:29;7.53;;;3.70;;
42192;SDS011;52467;40.114;18.306;2023-06-22T10:47:57;7.15;;;3.40;;
42192;SDS011;52467;40.114;18.306;2023-06-22T10:50:25;6.97;;;3.27;;
42192;SDS011;52467;40.114;18.306;2023-06-22T10:52:53;6.13;;;3.05;;
42192;SDS011;52467;40.114;18.306;2023-06-22T10:55:22;5.73;;;3.07;;
42192;SDS011;52467;40.114;18.306;2023-06-22T10:57:49;6.57;;;2.85;;
42192;SDS011;52467;40.114;18.306;2023-06-22T11:00:17;4.40;;;2.75;;
42192;SDS011;52467;40.114;18.306;2023-06-22T11:02:44;4.47;;;2.60;;
42192;SDS011;52467;40.114;18.306;2023-06-22T11:05:11;12.68;;;2.70;;
42192;SDS011;52467;40.114;18.306;2023-06-22T11:07:42;4.45;;;2.70;;
42192;SDS011;52467;40.114;18.306;2023-06-22T11:10:15;7.28;;;2.67;;
42192;SDS011;52467;40.114;18.306;2023-06-22T11:12:43;4.78;;;2.90;;
42192;SDS011;52467;40.114;18.306;2023-06-22T11:15:10;5.17;;;2.70;;
42192;SDS011;52467;40.114;18.306;2023-06-22T11:17:37;5.07;;;2.72;;
42192;SDS011;52467;40.114;18.306;2023-06-22T11:20:05;7.25;;;2.55;;
42192;SDS011;52467;40.114;18.306;2023-06-22T11:22:39;7.20;;;3.00;;
42192;SDS011;52467;40.114;18.306;2023-06-22T11:25:07;4.93;;;2.58;;
42192;SDS011;52467;40.114;18.306;2023-06-22T11:27:35;6.28;;;2.85;;
42192;SDS011;52467;40.114;18.306;2023-06-22T11:30:02;7.87;;;3.27;;
42192;SDS011;52467;40.114;18.306;2023-06-22T11:32:30;4.53;;;2.70;;
42192;SDS011;52467;40.114;18.306;2023-06-22T11:34:57;7.07;;;2.95;;
42192;SDS011;52467;40.114;18.306;2023-06-22T11:37:25;6.70;;;2.72;;
42192;SDS011;52467;40.114;18.306;2023-06-22T11:39:52;10.60;;;2.77;;
42192;SDS011;52467;40.114;18.306;2023-06-22T11:42:25;5.10;;;2.90;;
42192;SDS011;52467;40.114;18.306;2023-06-22T11:44:53;9.77;;;3.15;;
42192;SDS011;52467;40.114;18.306;2023-06-22T11:47:20;3.92;;;2.10;;
42192;SDS011;52467;40.114;18.306;2023-06-22T11:49:48;8.57;;;2.80;;
42192;SDS011;52467;40.114;18.306;2023-06-22T11:52:15;3.58;;;2.35;;
42192;SDS011;52467;40.114;18.306;2023-06-22T11:54:44;5.57;;;2.63;;
42192;SDS011;52467;40.114;18.306;2023-06-22T11:57:12;7.78;;;2.97;;
42192;SDS011;52467;40.114;18.306;2023-06-22T11:59:39;6.57;;;2.70;;
42192;SDS011;52467;40.114;18.306;2023-06-22T12:02:07;4.70;;;2.60;;
42192;SDS011;52467;40.114;18.306;2023-06-22T12:04:36;5.80;;;2.75;;
42192;SDS011;52467;40.114;18.306;2023-06-22T12:07:03;4.95;;;2.80;;
42192;SDS011;52467;40.114;18.306;2023-06-22T12:09:31;9.10;;;2.92;;
42192;SDS011;52467;40.114;18.306;2023-06-22T12:11:58;4.20;;;2.50;;
42192;SDS011;52467;40.114;18.306;2023-06-22T12:14:26;6.85;;;2.55;;
42192;SDS011;52467;40.114;18.306;2023-06-22T12:16:53;6.95;;;3.05;;
42192;SDS011;52467;40.114;18.306;2023-06-22T12:19:21;7.10;;;2.50;;
42192;SDS011;52467;40.114;18.306;2023-06-22T12:21:48;7.10;;;2.70;;
42192;SDS011;52467;40.114;18.306;2023-06-22T12:24:15;5.15;;;2.60;;
42192;SDS011;52467;40.114;18.306;2023-06-22T12:26:43;7.23;;;3.03;;
42192;SDS011;52467;40.114;18.306;2023-06-22T12:29:10;4.30;;;2.70;;
42192;SDS011;52467;40.114;18.306;2023-06-22T12:31:38;7.22;;;3.25;;
42192;SDS011;52467;40.114;18.306;2023-06-22T12:34:06;6.72;;;2.75;;
42192;SDS011;52467;40.114;18.306;2023-06-22T12:36:33;4.72;;;2.70;;
42192;SDS011;52467;40.114;18.306;2023-06-22T12:39:00;5.63;;;2.97;;
42192;SDS011;52467;40.114;18.306;2023-06-22T12:41:28;7.27;;;3.57;;
42192;SDS011;52467;40.114;18.306;2023-06-22T12:43:55;6.65;;;2.88;;
42192;SDS011;52467;40.114;18.306;2023-06-22T12:46:22;4.82;;;2.75;;
42192;SDS011;52467;40.114;18.306;2023-06-22T12:48:50;4.30;;;2.80;;
42192;SDS011;52467;40.114;18.306;2023-06-22T12:51:20;4.00;;;2.80;;
42192;SDS011;52467;40.114;18.306;2023-06-22T12:53:49;8.63;;;3.00;;
42192;SDS011;52467;40.114;18.306;2023-06-22T12:56:16;5.93;;;2.70;;
42192;SDS011;52467;40.114;18.306;2023-06-22T12:58:43;4.93;;;2.53;;
42192;SDS011;52467;40.114;18.306;2023-06-22T13:01:11;5.33;;;2.80;;
42192;SDS011;52467;40.114;18.306;2023-06-22T13:03:38;6.57;;;2.97;;
42192;SDS011;52467;40.114;18.306;2023-06-22T13:06:06;7.23;;;3.23;;
42192;SDS011;52467;40.114;18.306;2023-06-22T13:08:33;5.35;;;2.90;;
42192;SDS011;52467;40.114;18.306;2023-06-22T13:11:20;5.10;;;2.80;;
42192;SDS011;52467;40.114;18.306;2023-06-22T13:13:47;5.20;;;2.78;;
42192;SDS011;52467;40.114;18.306;2023-06-22T13:16:15;5.68;;;3.08;;
42192;SDS011;52467;40.114;18.306;2023-06-22T13:18:42;9.40;;;3.92;;
42192;SDS011;52467;40.114;18.306;2023-06-22T13:21:09;4.88;;;2.85;;
42192;SDS011;52467;40.114;18.306;2023-06-22T13:23:37;4.57;;;3.10;;
42192;SDS011;52467;40.114;18.306;2023-06-22T13:26:04;5.05;;;3.10;;
42192;SDS011;52467;40.114;18.306;2023-06-22T13:28:31;5.32;;;3.13;;
42192;SDS011;52467;40.114;18.306;2023-06-22T13:30:59;5.83;;;3.00;;
42192;SDS011;52467;40.114;18.306;2023-06-22T13:33:26;5.45;;;2.83;;
42192;SDS011;52467;40.114;18.306;2023-06-22T13:35:53;5.22;;;2.88;;
42192;SDS011;52467;40.114;18.306;2023-06-22T13:38:21;3.83;;;2.70;;
42192;SDS011;52467;40.114;18.306;2023-06-22T13:40:49;5.93;;;2.83;;
42192;SDS011;52467;40.114;18.306;2023-06-22T13:43:17;8.27;;;3.88;;
42192;SDS011;52467;40.114;18.306;2023-06-22T13:45:44;7.60;;;3.05;;
42192;SDS011;52467;40.114;18.306;2023-06-22T13:48:11;7.15;;;3.15;;
42192;SDS011;52467;40.114;18.306;2023-06-22T13:50:39;6.27;;;2.93;;
42192;SDS011;52467;40.114;18.306;2023-06-22T13:53:06;5.78;;;3.10;;
42192;SDS011;52467;40.114;18.306;2023-06-22T13:55:33;3.22;;;2.80;;
42192;SDS011;52467;40.114;18.306;2023-06-22T13:58:00;4.60;;;2.77;;
42192;SDS011;52467;40.114;18.306;2023-06-22T14:00:28;4.88;;;2.92;;
42192;SDS011;52467;40.114;18.306;2023-06-22T14:02:55;5.35;;;3.00;;
42192;SDS011;52467;40.114;18.306;2023-06-22T14:05:22;4.20;;;2.77;;
42192;SDS011;52467;40.114;18.306;2023-06-22T14:07:50;4.40;;;2.83;;
42192;SDS011;52467;40.114;18.306;2023-06-22T14:10:17;5.28;;;3.10;;
42192;SDS011;52467;40.114;18.306;2023-06-22T14:12:45;5.72;;;2.97;;
42192;SDS011;52467;40.114;18.306;2023-06-22T14:15:12;5.20;;;3.28;;
42192;SDS011;52467;40.114;18.306;2023-06-22T14:17:39;6.30;;;3.08;;
42192;SDS011;52467;40.114;18.306;2023-06-22T14:20:07;8.40;;;2.80;;
42192;SDS011;52467;40.114;18.306;2023-06-22T14:22:35;4.20;;;2.53;;
42192;SDS011;52467;40.114;18.306;2023-06-22T14:25:02;9.03;;;2.73;;
42192;SDS011;52467;40.114;18.306;2023-06-22T14:27:31;6.18;;;2.80;;
42192;SDS011;52467;40.114;18.306;2023-06-22T14:29:58;5.17;;;2.90;;
42192;SDS011;52467;40.114;18.306;2023-06-22T14:32:27;10.00;;;2.90;;
42192;SDS011;52467;40.114;18.306;2023-06-22T14:34:56;6.90;;;3.00;;
42192;SDS011;52467;40.114;18.306;2023-06-22T14:37:23;6.70;;;3.30;;
42192;SDS011;52467;40.114;18.306;2023-06-22T14:39:51;8.80;;;3.17;;
42192;SDS011;52467;40.114;18.306;2023-06-22T14:42:18;9.13;;;3.70;;
42192;SDS011;52467;40.114;18.306;2023-06-22T14:44:45;3.75;;;2.53;;